createdAt,value
2023-08-07T00:00:37.420Z,98437.09
2023-08-07T00:03:38.975Z,98443.22
2023-08-07T00:06:40.415Z,98437.91
2023-08-07T00:09:41.814Z,98459.19
2023-08-07T00:12:44.197Z,98450.28
2023-08-07T00:15:45.704Z,98444.34
2023-08-07T00:18:47.164Z,98441.59
2023-08-07T00:21:48.577Z,98432.00
2023-08-07T00:24:50.022Z,98444.09
2023-08-07T00:27:51.461Z,98434.44
2023-08-07T00:30:52.951Z,98439.53
2023-08-07T00:33:55.544Z,98439.59
2023-08-07T00:36:57.303Z,98440.53
2023-08-07T00:39:59.024Z,98442.19
2023-08-07T00:43:00.416Z,98444.84
2023-08-07T00:46:01.864Z,98450.06
2023-08-07T00:49:05.729Z,98455.28
2023-08-07T00:52:07.283Z,98457.16
2023-08-07T00:55:08.756Z,98453.50
2023-08-07T00:58:10.196Z,98457.91
2023-08-07T01:01:11.614Z,98461.34
2023-08-07T01:04:13.102Z,98462.28
2023-08-07T01:07:14.526Z,98472.63
2023-08-07T01:10:15.928Z,98470.03
2023-08-07T01:13:19.978Z,98470.91
2023-08-07T01:16:23.327Z,98480.56
2023-08-07T01:19:28.279Z,98477.97
2023-08-07T01:22:29.714Z,98485.81
2023-08-07T01:25:31.170Z,98484.03
2023-08-07T01:28:34.114Z,98495.69
2023-08-07T01:31:35.579Z,98485.34
2023-08-07T01:34:37.207Z,98475.84
2023-08-07T01:37:40.034Z,98474.66
2023-08-07T01:40:41.813Z,98481.69
2023-08-07T01:43:43.209Z,98491.28
2023-08-07T01:46:44.720Z,98481.69
2023-08-07T01:49:46.175Z,98492.22
2023-08-07T01:52:50.536Z,98493.09
2023-08-07T01:55:51.976Z,98495.59
2023-08-07T01:58:53.407Z,98492.13
2023-08-07T02:01:54.821Z,98487.75
2023-08-07T02:04:56.268Z,98510.47
2023-08-07T02:07:58.056Z,98509.50
2023-08-07T02:11:02.421Z,98513.84
2023-08-07T02:14:03.993Z,98507.03
2023-08-07T02:17:05.651Z,98509.56
2023-08-07T02:20:07.295Z,98513.88
2023-08-07T02:23:08.742Z,98512.94
2023-08-07T02:26:10.157Z,98518.22
2023-08-07T02:29:11.564Z,98519.06
2023-08-07T02:32:12.981Z,98515.66
2023-08-07T02:35:14.436Z,98512.16
2023-08-07T02:38:15.854Z,98520.00
2023-08-07T02:41:17.272Z,98514.78
2023-08-07T02:44:18.761Z,98513.00
2023-08-07T02:47:20.189Z,98519.16
2023-08-07T02:50:21.607Z,98509.56
2023-08-07T02:53:23.133Z,98510.47
2023-08-07T02:56:24.551Z,98517.50
2023-08-07T02:59:26.056Z,98512.22
2023-08-07T03:02:27.533Z,98508.72
2023-08-07T03:05:29.063Z,98506.09
2023-08-07T03:08:30.506Z,98508.72
2023-08-07T03:11:32.185Z,98508.81
2023-08-07T03:14:33.575Z,98509.56
2023-08-07T03:17:35.107Z,98513.19
2023-08-07T03:20:39.376Z,98500.22
2023-08-07T03:23:40.879Z,98508.09
2023-08-07T03:26:42.409Z,98502.84
2023-08-07T03:29:45.993Z,98508.09
2023-08-07T03:32:47.856Z,98504.69
2023-08-07T03:35:49.316Z,98505.47
2023-08-07T03:38:50.901Z,98502.09
2023-08-07T03:41:52.305Z,98501.13
2023-08-07T03:44:53.690Z,98507.19
2023-08-07T03:47:55.221Z,98494.16
2023-08-07T03:51:06.126Z,98495.97
2023-08-07T03:54:07.548Z,98507.28
2023-08-07T03:57:09.575Z,98500.31
2023-08-07T04:00:11.209Z,98502.03
2023-08-07T04:03:12.661Z,98508.19
2023-08-07T04:06:16.977Z,98509.03
2023-08-07T04:09:18.457Z,98506.47
2023-08-07T04:12:19.863Z,98504.72
2023-08-07T04:15:21.290Z,98503.81
2023-08-07T04:18:23.217Z,98508.16
2023-08-07T04:21:24.680Z,98501.25
2023-08-07T04:24:26.182Z,98511.72
2023-08-07T04:27:28.035Z,98500.31
2023-08-07T04:30:29.460Z,98508.16
2023-08-07T04:33:30.954Z,98502.88
2023-08-07T04:36:32.351Z,98501.13
2023-08-07T04:39:33.826Z,98509.94
2023-08-07T04:42:35.245Z,98509.00
2023-08-07T04:45:38.526Z,98505.47
2023-08-07T04:48:39.956Z,98512.66
2023-08-07T04:51:41.379Z,98509.28
2023-08-07T04:54:42.790Z,98508.28
2023-08-07T04:57:44.224Z,98510.84
2023-08-07T05:00:45.713Z,98513.50
2023-08-07T05:03:47.216Z,98517.00
2023-08-07T05:06:49.880Z,98522.13
2023-08-07T05:09:52.008Z,98522.03
2023-08-07T05:12:56.421Z,98529.06
2023-08-07T05:15:57.856Z,98525.53
2023-08-07T05:18:59.256Z,98528.13
2023-08-07T05:22:00.688Z,98526.41
2023-08-07T05:25:02.111Z,98522.84
2023-08-07T05:28:03.879Z,98515.84
2023-08-07T05:31:05.383Z,98525.34
2023-08-07T05:34:07.655Z,98533.16
2023-08-07T05:37:09.323Z,98530.56
2023-08-07T05:40:13.123Z,98532.34
2023-08-07T05:43:14.668Z,98527.84
2023-08-07T05:46:16.088Z,98533.09
2023-08-07T05:49:17.642Z,98532.28
2023-08-07T05:52:19.086Z,98545.31
2023-08-07T05:55:20.519Z,98538.28
2023-08-07T05:58:21.932Z,98539.06
2023-08-07T06:01:23.448Z,98535.84
2023-08-07T06:04:24.894Z,98536.69
2023-08-07T06:07:26.932Z,98536.56
2023-08-07T06:10:28.427Z,98536.38
2023-08-07T06:13:36.067Z,98532.75
2023-08-07T06:16:38.086Z,98548.56
2023-08-07T06:19:39.501Z,98557.16
2023-08-07T06:22:41.514Z,98562.59
2023-08-07T06:25:42.941Z,98571.97
2023-08-07T06:28:44.519Z,98574.53
2023-08-07T06:31:46.063Z,98585.06
2023-08-07T06:34:47.786Z,98603.38
2023-08-07T06:37:49.368Z,98631.06
2023-08-07T06:40:50.814Z,98641.44
2023-08-07T06:43:52.961Z,98645.72
2023-08-07T06:46:54.446Z,98631.56
2023-08-07T06:49:55.867Z,98651.88
2023-08-07T06:52:57.285Z,98660.59
2023-08-07T06:55:58.750Z,98669.34
2023-08-07T06:59:00.198Z,98670.22
2023-08-07T07:02:01.733Z,98684.09
2023-08-07T07:05:03.605Z,98692.59
2023-08-07T07:08:05.073Z,98695.97
2023-08-07T07:11:06.539Z,98704.09
2023-08-07T07:14:07.997Z,98710.97
2023-08-07T07:17:09.418Z,98713.28
2023-08-07T07:20:10.967Z,98705.13
2023-08-07T07:23:12.438Z,98715.56
2023-08-07T07:26:13.891Z,98722.56
2023-08-07T07:29:15.304Z,98726.81
2023-08-07T07:32:16.783Z,98733.25
2023-08-07T07:35:18.312Z,98742.00
2023-08-07T07:38:19.728Z,98740.28
2023-08-07T07:41:23.185Z,98748.22
2023-08-07T07:44:24.640Z,98751.94
2023-08-07T07:47:26.053Z,98764.78
2023-08-07T07:50:27.518Z,98757.91
2023-08-07T07:53:29.067Z,98762.97
2023-08-07T07:56:30.573Z,98760.19
2023-08-07T07:59:31.989Z,98760.63
2023-08-07T08:02:33.446Z,98771.34
2023-08-07T08:05:35.508Z,98769.69
2023-08-07T08:08:36.981Z,98775.47
2023-08-07T08:11:38.423Z,98773.16
2023-08-07T08:14:54.341Z,98780.81
2023-08-07T08:17:57.450Z,98779.31
2023-08-07T08:20:58.893Z,98775.25
2023-08-07T08:24:00.353Z,98787.41
2023-08-07T08:27:02.063Z,98792.72
2023-08-07T08:30:03.698Z,98795.22
2023-08-07T08:33:06.689Z,98795.00
2023-08-07T08:36:08.216Z,98794.59
2023-08-07T08:39:09.862Z,98793.88
2023-08-07T08:42:12.017Z,98800.66
2023-08-07T08:45:14.144Z,98802.91
2023-08-07T08:48:18.544Z,98805.84
2023-08-07T08:51:20.476Z,98814.19
2023-08-07T08:54:21.964Z,98809.16
2023-08-07T08:57:23.873Z,98804.47
2023-08-07T09:00:26.883Z,98807.47
2023-08-07T09:03:28.386Z,98812.81
2023-08-07T09:06:30.358Z,98819.13
2023-08-07T09:09:31.786Z,98818.41
2023-08-07T09:12:33.325Z,98821.09
2023-08-07T09:15:34.716Z,98817.00
2023-08-07T09:18:36.585Z,98814.13
2023-08-07T09:21:38.065Z,98820.84
2023-08-07T09:24:39.503Z,98823.44
2023-08-07T09:27:40.974Z,98833.81
2023-08-07T09:30:43.420Z,98827.66
2023-08-07T09:33:47.362Z,98829.00
2023-08-07T09:36:48.940Z,98840.31
2023-08-07T09:39:50.348Z,98818.00
2023-08-07T09:42:52.737Z,98830.03
2023-08-07T09:45:54.200Z,98823.56
2023-08-07T09:48:58.315Z,98834.06
2023-08-07T09:51:59.747Z,98828.72
2023-08-07T09:55:01.210Z,98823.69
2023-08-07T09:58:03.211Z,98836.06
2023-08-07T10:01:05.469Z,98823.66
2023-08-07T10:04:07.730Z,98831.56
2023-08-07T10:07:10.081Z,98830.22
2023-08-07T10:10:11.756Z,98832.69
2023-08-07T10:13:14.733Z,98835.47
2023-08-07T10:16:17.333Z,98837.25
2023-08-07T10:19:18.752Z,98825.66
2023-08-07T10:22:20.408Z,98829.28
2023-08-07T10:25:21.950Z,98830.50
2023-08-07T10:28:23.396Z,98842.34
2023-08-07T10:31:24.874Z,98846.66
2023-08-07T10:34:26.350Z,98846.41
2023-08-07T10:37:43.765Z,98853.09
2023-08-07T10:41:01.230Z,98855.09
2023-08-07T10:44:02.692Z,98856.34
2023-08-07T10:47:04.138Z,98854.06
2023-08-07T10:50:05.788Z,98851.09
2023-08-07T10:53:07.283Z,98850.13
2023-08-07T10:56:09.389Z,98850.09
2023-08-07T10:59:11.427Z,98846.88
2023-08-07T11:02:13.998Z,98844.47
2023-08-07T11:05:15.654Z,98853.75
2023-08-07T11:08:17.213Z,98842.16
2023-08-07T11:11:18.695Z,98859.59
2023-08-07T11:14:20.448Z,98852.53
2023-08-07T11:17:21.915Z,98849.81
2023-08-07T11:20:23.453Z,98850.44
2023-08-07T11:23:25.527Z,98839.09
2023-08-07T11:26:29.013Z,98832.53
2023-08-07T11:29:31.934Z,98840.88
2023-08-07T11:32:33.454Z,98848.59
2023-08-07T11:35:34.907Z,98844.53
2023-08-07T11:38:37.685Z,98846.22
2023-08-07T11:41:39.140Z,98853.59
2023-08-07T11:44:41.461Z,98856.72
2023-08-07T11:47:42.881Z,98849.81
2023-08-07T11:50:44.295Z,98854.09
2023-08-07T11:53:45.727Z,98845.16
2023-08-07T11:56:47.161Z,98842.06
2023-08-07T11:59:49.097Z,98853.72
2023-08-07T12:02:50.581Z,98842.19
2023-08-07T12:05:52.141Z,98836.44
2023-08-07T12:08:57.257Z,98850.16
2023-08-07T12:11:59.397Z,98839.41
2023-08-07T12:15:00.849Z,98880.75
2023-08-07T12:18:02.733Z,98851.09
2023-08-07T12:21:07.450Z,98864.00
2023-08-07T12:24:08.984Z,98866.63
2023-08-07T12:27:10.466Z,98875.38
2023-08-07T12:30:12.257Z,98871.59
2023-08-07T12:33:13.732Z,98868.03
2023-08-07T12:39:22.354Z,98862.88
2023-08-07T12:42:25.195Z,98851.56
2023-08-07T12:48:31.643Z,98852.13
2023-08-07T12:51:33.089Z,98842.81
2023-08-07T12:54:34.579Z,98848.47
2023-08-07T12:57:36.362Z,98847.09
2023-08-07T13:00:37.788Z,98843.00
2023-08-07T13:03:40.253Z,98859.59
2023-08-07T13:06:41.970Z,98844.16
2023-08-07T13:09:43.357Z,98847.19
2023-08-07T13:12:45.453Z,98860.47
2023-08-07T13:15:46.900Z,98836.13
2023-08-07T13:18:48.317Z,98835.91
2023-08-07T13:21:50.151Z,98849.22
2023-08-07T13:24:51.584Z,98853.06
2023-08-07T13:27:53.043Z,98860.50
2023-08-07T13:30:57.172Z,98856.97
2023-08-07T13:33:59.132Z,98872.81
2023-08-07T13:37:07.223Z,98867.31
2023-08-07T13:40:08.993Z,98879.75
2023-08-07T13:43:10.581Z,98876.69
2023-08-07T13:46:12.186Z,98885.09
2023-08-07T13:49:13.819Z,98873.50
2023-08-07T13:52:15.434Z,98888.34
2023-08-07T13:55:16.881Z,98894.25
2023-08-07T13:58:18.332Z,98881.81
2023-08-07T14:01:20.015Z,98890.81
2023-08-07T14:04:21.841Z,98889.88
2023-08-07T14:07:23.818Z,98890.03
2023-08-07T14:10:25.252Z,98887.13
2023-08-07T14:13:26.693Z,98892.09
2023-08-07T14:16:28.271Z,98889.84
2023-08-07T14:19:29.670Z,98888.38
2023-08-07T14:22:31.724Z,98880.31
2023-08-07T14:25:33.151Z,98881.88
2023-08-07T14:28:34.838Z,98888.94
2023-08-07T14:31:36.310Z,98886.94
2023-08-07T14:34:40.854Z,98881.59
2023-08-07T14:37:42.413Z,98881.66
2023-08-07T14:40:44.694Z,98879.44
2023-08-07T14:43:47.745Z,98875.66
2023-08-07T14:46:49.205Z,98872.41
2023-08-07T14:49:50.627Z,98877.59
2023-08-07T14:52:52.050Z,98881.28
2023-08-07T14:55:53.622Z,98882.00
2023-08-07T14:58:55.209Z,98873.63
2023-08-07T15:01:56.945Z,98876.44
2023-08-07T15:04:58.660Z,98879.44
2023-08-07T15:08:01.044Z,98882.84
2023-08-07T15:11:02.431Z,98877.38
2023-08-07T15:14:05.735Z,98876.63
2023-08-07T15:17:07.383Z,98875.25
2023-08-07T15:20:09.443Z,98883.00
2023-08-07T15:23:10.919Z,98872.41
2023-08-07T15:26:12.441Z,98876.41
2023-08-07T15:29:13.857Z,98876.44
2023-08-07T15:32:15.488Z,98873.94
2023-08-07T15:35:16.942Z,98887.59
2023-08-07T15:38:18.377Z,98890.25
2023-08-07T15:41:19.932Z,98877.56
2023-08-07T15:44:21.349Z,98877.63
2023-08-07T15:47:22.772Z,98874.25
2023-08-07T15:50:24.307Z,98871.34
2023-08-07T15:53:25.872Z,98877.19
2023-08-07T15:56:27.288Z,98872.91
2023-08-07T15:59:29.151Z,98873.13
2023-08-07T16:02:30.677Z,98869.91
2023-08-07T16:05:33.054Z,98869.09
2023-08-07T16:08:34.710Z,98864.84
2023-08-07T16:11:36.110Z,98867.91
2023-08-07T16:14:38.987Z,98866.19
2023-08-07T16:17:41.056Z,98867.81
2023-08-07T16:20:42.485Z,98862.66
2023-08-07T16:23:43.901Z,98870.00
2023-08-07T16:26:45.407Z,98857.84
2023-08-07T16:29:46.949Z,98864.06
2023-08-07T16:32:48.415Z,98863.75
2023-08-07T16:35:49.881Z,98864.41
2023-08-07T16:38:52.455Z,98858.94
2023-08-07T16:41:53.902Z,98858.78
2023-08-07T16:44:55.316Z,98861.72
2023-08-07T16:48:01.135Z,98852.97
2023-08-07T16:51:14.960Z,98863.81
2023-08-07T16:54:17.635Z,98847.72
2023-08-07T16:57:19.157Z,98848.59
2023-08-07T17:00:20.595Z,98849.41
2023-08-07T17:03:22.154Z,98851.03
2023-08-07T17:06:23.713Z,98856.63
2023-08-07T17:09:25.140Z,98852.97
2023-08-07T17:12:26.586Z,98844.34
2023-08-07T17:15:28.045Z,98849.13
2023-08-07T17:18:29.483Z,98847.03
2023-08-07T17:21:30.992Z,98848.91
2023-08-07T17:24:32.592Z,98848.97
2023-08-07T17:27:34.094Z,98850.84
2023-08-07T17:30:35.613Z,98849.56
2023-08-07T17:33:37.145Z,98861.66
2023-08-07T17:36:38.724Z,98847.09
2023-08-07T17:39:40.171Z,98857.41
2023-08-07T17:42:44.128Z,98858.41
2023-08-07T17:45:45.687Z,98866.59
2023-08-07T17:48:47.273Z,98868.31
2023-08-07T17:51:48.820Z,98867.94
2023-08-07T17:54:51.907Z,98869.09
2023-08-07T17:57:53.547Z,98871.28
2023-08-07T18:00:55.434Z,98862.09
2023-08-07T18:04:00.766Z,98867.88
2023-08-07T18:07:02.371Z,98860.47
2023-08-07T18:10:04.193Z,98861.56
2023-08-07T18:13:05.804Z,98868.56
2023-08-07T18:16:07.318Z,98874.63
2023-08-07T18:19:08.811Z,98873.31
2023-08-07T18:22:10.350Z,98875.75
2023-08-07T18:25:11.993Z,98870.41
2023-08-07T18:28:13.515Z,98872.38
2023-08-07T18:31:15.032Z,98871.28
2023-08-07T18:34:17.529Z,98866.44
2023-08-07T18:37:19.206Z,98873.41
2023-08-07T18:40:20.686Z,98861.19
2023-08-07T18:43:22.129Z,98870.53
2023-08-07T18:46:23.691Z,98863.56
2023-08-07T18:49:25.192Z,98861.19
2023-08-07T18:52:26.836Z,98859.63
2023-08-07T18:55:28.554Z,98868.16
2023-08-07T18:58:30.111Z,98868.16
2023-08-07T19:01:32.002Z,98857.69
2023-08-07T19:04:33.516Z,98865.78
2023-08-07T19:07:35.210Z,98864.16
2023-08-07T19:10:36.784Z,98867.03
2023-08-07T19:13:38.371Z,98866.44
2023-08-07T19:16:43.225Z,98871.22
2023-08-07T19:19:44.727Z,98867.78
2023-08-07T19:22:46.233Z,98863.28
2023-08-07T19:25:47.865Z,98872.13
2023-08-07T19:28:50.827Z,98861.59
2023-08-07T19:31:52.392Z,98862.16
2023-08-07T19:34:53.892Z,98862.22
2023-08-07T19:37:55.434Z,98864.16
2023-08-07T19:40:56.958Z,98868.69
2023-08-07T19:43:58.421Z,98865.41
2023-08-07T19:47:00.685Z,98857.75
2023-08-07T19:50:02.289Z,98859.53
2023-08-07T19:53:03.835Z,98849.28
2023-08-07T19:56:07.721Z,98860.88
2023-08-07T19:59:09.198Z,98856.50
2023-08-07T20:02:10.683Z,98861.00
2023-08-07T20:05:12.296Z,98866.31
2023-08-07T20:08:13.842Z,98861.19
2023-08-07T20:11:15.351Z,98863.66
2023-08-07T20:14:16.987Z,98865.25
2023-08-07T20:17:18.447Z,98859.16
2023-08-07T20:20:22.893Z,98858.22
2023-08-07T20:23:25.963Z,98869.59
2023-08-07T20:26:27.467Z,98855.59
2023-08-07T20:29:28.991Z,98868.88
2023-08-07T20:32:30.502Z,98868.00
2023-08-07T20:35:32.029Z,98860.19
2023-08-07T20:38:33.533Z,98857.59
2023-08-07T20:41:35.076Z,98866.34
2023-08-07T20:44:36.521Z,98862.81
2023-08-07T20:47:38.406Z,98861.75
2023-08-07T20:50:39.916Z,98871.47
2023-08-07T20:53:41.578Z,98869.75
2023-08-07T20:56:43.090Z,98873.28
2023-08-07T20:59:44.595Z,98865.31
2023-08-07T21:02:47.218Z,98858.25
2023-08-07T21:05:48.876Z,98866.13
2023-08-07T21:08:50.867Z,98852.19
2023-08-07T21:11:53.634Z,98859.25
2023-08-07T21:14:55.206Z,98862.69
2023-08-07T21:17:58.247Z,98860.88
2023-08-07T21:20:59.773Z,98851.31
2023-08-07T21:24:01.271Z,98849.56
2023-08-07T21:27:02.747Z,98850.47
2023-08-07T21:30:04.389Z,98845.19
2023-08-07T21:33:05.923Z,98844.38
2023-08-07T21:36:07.550Z,98845.22
2023-08-07T21:39:09.078Z,98841.00
2023-08-07T21:42:10.516Z,98839.19
2023-08-07T21:45:12.040Z,98837.41
2023-08-07T21:48:13.552Z,98841.75
2023-08-07T21:51:15.114Z,98840.00
2023-08-07T21:54:16.571Z,98835.56
2023-08-07T21:57:18.204Z,98830.41
2023-08-07T22:00:21.330Z,98826.84
2023-08-07T22:03:22.908Z,98822.50
2023-08-07T22:06:24.472Z,98810.31
2023-08-07T22:09:25.970Z,98811.16
2023-08-07T22:12:27.565Z,98807.69
2023-08-07T22:15:29.118Z,98807.03
2023-08-07T22:18:30.579Z,98799.97
2023-08-07T22:21:32.191Z,98792.22
2023-08-07T22:24:33.688Z,98791.31
2023-08-07T22:27:35.272Z,98786.16
2023-08-07T22:30:36.887Z,98776.56
2023-08-07T22:33:38.461Z,98769.69
2023-08-07T22:36:40.267Z,98767.16
2023-08-07T22:39:41.858Z,98761.03
2023-08-07T22:42:43.369Z,98762.72
2023-08-07T22:45:45.002Z,98766.25
2023-08-07T22:48:46.568Z,98762.75
2023-08-07T22:51:48.048Z,98759.38
2023-08-07T22:54:49.563Z,98756.81
2023-08-07T22:57:51.105Z,98746.38
2023-08-07T23:00:52.609Z,98743.69
2023-08-07T23:03:54.243Z,98741.00
2023-08-07T23:06:55.768Z,98745.50
2023-08-07T23:09:57.272Z,98736.63
2023-08-07T23:12:59.004Z,98725.44
2023-08-07T23:16:00.946Z,98724.69
2023-08-07T23:19:02.439Z,98713.41
2023-08-07T23:22:04.091Z,98709.94
2023-08-07T23:25:06.256Z,98707.22
2023-08-07T23:28:08.185Z,98698.47
2023-08-07T23:31:09.776Z,98694.94
2023-08-07T23:34:11.287Z,98694.91
2023-08-07T23:37:12.770Z,98690.53
2023-08-07T23:40:14.306Z,98691.28
2023-08-07T23:43:16.228Z,98692.13
2023-08-07T23:46:20.238Z,98692.91
2023-08-07T23:49:22.105Z,98705.03
2023-08-07T23:52:23.576Z,98703.34
2023-08-07T23:55:25.113Z,98704.19
2023-08-07T23:58:26.596Z,98699.94
